| time (UTC) | temp F | wind direction | speed MPH | gust MPH | rain 1hr in | rain 24hr in | rain mn in | humidity % | barometer mb |
| 20260509224553 | 68 | 328 | 0.0 | 12.0 | 0.00 | 0.00 | 0.00 | 44 | 1011.9 |
| 20260509223100 | 69 | 336 | 2.0 | 12.0 | 0.00 | 0.00 | 0.00 | 44 | 1011.9 |
| 20260509221555 | 70 | 0 | 2.0 | 12.0 | 0.00 | 0.00 | 0.00 | 43 | 1011.7 |
| 20260509220104 | 69 | 345 | 0.0 | 11.0 | 0.00 | 0.00 | 0.00 | 45 | 1011.7 |
| 20260509214558 | 69 | 335 | 2.0 | 9.0 | 0.00 | 0.00 | 0.00 | 44 | 1011.5 |
| 20260509213104 | 69 | 4 | 3.0 | 15.0 | 0.00 | 0.00 | 0.00 | 43 | 1011.5 |
| 20260509211604 | 69 | 342 | 2.0 | 10.0 | 0.00 | 0.00 | 0.00 | 41 | 1011.4 |
| 20260509210101 | 69 | 339 | 3.0 | 18.0 | 0.00 | 0.00 | 0.00 | 41 | 1011.3 |
| 20260509204600 | 70 | 5 | 7.0 | 19.0 | 0.00 | 0.00 | 0.00 | 38 | 1011.2 |
| 20260509203058 | 70 | 5 | 7.0 | 21.0 | 0.00 | 0.00 | 0.00 | 38 | 1010.9 |
| 20260509201553 | 71 | 344 | 7.0 | 19.0 | 0.00 | 0.00 | 0.00 | 37 | 1010.6 |
| 20260509200057 | 74 | 342 | 4.0 | 15.0 | 0.00 | 0.00 | 0.00 | 35 | 1010.2 |
| 20260509194557 | 74 | 47 | 3.0 | 10.0 | 0.00 | 0.00 | 0.00 | 36 | 1009.8 |
| 20260509193057 | 75 | 5 | 4.0 | 13.0 | 0.00 | 0.00 | 0.00 | 32 | 1009.6 |
| 20260509191622 | 75 | 360 | 6.0 | 15.0 | 0.00 | 0.00 | 0.00 | 29 | 1009.5 |
| 20260509190100 | 76 | 357 | 2.0 | 8.0 | 0.00 | 0.00 | 0.00 | 27 | 1009.4 |
| 20260509184558 | 75 | 333 | 0.0 | 7.0 | 0.00 | 0.00 | 0.00 | 30 | 1009.4 |
| 20260509183057 | 75 | 342 | 2.0 | 16.0 | 0.00 | 0.00 | 0.00 | 29 | 1009.5 |
| 20260509181604 | 75 | 47 | 3.0 | 16.0 | 0.00 | 0.00 | 0.00 | 30 | 1009.4 |
| 20260509180101 | 76 | 338 | 1.0 | 10.0 | 0.00 | 0.00 | 0.00 | 27 | 1009.2 |
| 20260509174604 | 74 | 9 | 3.0 | 13.0 | 0.00 | 0.00 | 0.00 | 29 | 1009.1 |
| 20260509173112 | 74 | 350 | 1.0 | 8.0 | 0.00 | 0.00 | 0.00 | 29 | 1009.2 |
| 20260509171601 | 74 | 334 | 3.0 | 11.0 | 0.00 | 0.00 | 0.00 | 29 | 1009.4 |
| 20260509170057 | 74 | 3 | 1.0 | 12.0 | 0.00 | 0.00 | 0.00 | 28 | 1009.5 |
| 20260509164554 | 72 | 9 | 1.0 | 7.0 | 0.00 | 0.00 | 0.00 | 30 | 1009.3 |
| 20260509163104 | 72 | 343 | 2.0 | 9.0 | 0.00 | 0.00 | 0.00 | 30 | 1009.2 |
| 20260509161559 | 70 | 352 | 3.0 | 12.0 | 0.00 | 0.00 | 0.00 | 29 | 1009.3 |
| 20260509160101 | 70 | 333 | 3.0 | 11.0 | 0.00 | 0.00 | 0.00 | 31 | 1009.4 |
| 20260509154609 | 70 | 24 | 2.0 | 10.0 | 0.00 | 0.00 | 0.00 | 36 | 1009.6 |
| 20260509153058 | 69 | 338 | 2.0 | 15.0 | 0.00 | 0.00 | 0.00 | 34 | 1009.8 |
| 20260509151555 | 68 | 3 | 3.0 | 18.0 | 0.00 | 0.00 | 0.00 | 36 | 1009.8 |
| 20260509150058 | 67 | 0 | 3.0 | 14.0 | 0.00 | 0.00 | 0.00 | 38 | 1009.5 |
| 20260509144610 | 64 | 331 | 0.0 | 18.0 | 0.00 | 0.00 | 0.00 | 41 | 1009.6 |
| 20260509143058 | 64 | 217 | 0.0 | 10.0 | 0.00 | 0.00 | 0.00 | 41 | 1008.3 |
| 20260509141556 | 63 | 203 | 2.0 | 8.0 | 0.00 | 0.00 | 0.00 | 42 | 1008.5 |
| 20260509140107 | 62 | 0 | 1.0 | 7.0 | 0.00 | 0.00 | 0.00 | 43 | 1008.5 |
| 20260509134557 | 60 | 0 | 1.0 | 8.0 | 0.00 | 0.00 | 0.00 | 45 | 1008.5 |
| 20260509133103 | 59 | 0 | 1.0 | 6.0 | 0.00 | 0.00 | 0.00 | 46 | 1008.3 |
| 20260509131559 | 57 | 219 | 0.0 | 7.0 | 0.00 | 0.00 | 0.00 | 51 | 1008.4 |
| 20260509130105 | 55 | 217 | 1.0 | 3.0 | 0.00 | 0.00 | 0.00 | 54 | 1008.2 |
| 20260509124609 | 54 | 0 | 0.0 | 3.0 | 0.00 | 0.00 | 0.00 | 55 | 1008.2 |
| 20260509123059 | 52 | 211 | 1.0 | 3.0 | 0.00 | 0.00 | 0.00 | 56 | 1008.2 |
| 20260509121607 | 51 | 0 | 0.0 | 4.0 | 0.00 | 0.00 | 0.00 | 61 | 1008.0 |
| 20260509120057 | 50 | 0 | 0.0 | 0.0 | 0.00 | 0.00 | 0.00 | 62 | 1008.0 |
| 20260509114556 | 49 | 0 | 0.0 | 2.0 | 0.00 | 0.00 | 0.00 | 62 | 1007.9 |
| 20260509113058 | 49 | 0 | 0.0 | 2.0 | 0.00 | 0.00 | 0.00 | 64 | 1007.7 |
| 20260509111600 | 49 | 219 | 1.0 | 2.0 | 0.00 | 0.00 | 0.00 | 64 | 1007.6 |
| 20260509110054 | 50 | 0 | 0.0 | 0.0 | 0.00 | 0.00 | 0.00 | 63 | 1007.6 |
| 20260509104553 | 50 | 0 | 0.0 | 2.0 | 0.00 | 0.00 | 0.00 | 61 | 1007.6 |
| 20260509103055 | 50 | 0 | 0.0 | 0.0 | 0.00 | 0.00 | 0.00 | 60 | 1007.7 |
| 20260509101600 | 51 | 221 | 0.0 | 0.0 | 0.00 | 0.00 | 0.00 | 59 | 1007.6 |
| 20260509100055 | 51 | 0 | 0.0 | 0.0 | 0.00 | 0.00 | 0.00 | 59 | 1007.7 |
| 20260509094600 | 51 | 0 | 0.0 | 3.0 | 0.00 | 0.00 | 0.00 | 58 | 1007.8 |
| 20260509093100 | 52 | 0 | 0.0 | 0.0 | 0.00 | 0.00 | 0.00 | 55 | 1007.7 |
| 20260509091554 | 53 | 214 | 1.0 | 2.0 | 0.00 | 0.00 | 0.00 | 53 | 1007.7 |
| 20260509090106 | 52 | 0 | 0.0 | 0.0 | 0.00 | 0.00 | 0.00 | 55 | 1007.7 |
| 20260509084600 | 53 | 0 | 1.0 | 2.0 | 0.00 | 0.00 | 0.00 | 51 | 1007.6 |
| 20260509083101 | 53 | 0 | 0.0 | 0.0 | 0.00 | 0.00 | 0.00 | 49 | 1007.5 |
| 20260509081557 | 54 | 0 | 0.0 | 2.0 | 0.00 | 0.00 | 0.00 | 48 | 1007.6 |
| 20260509080100 | 54 | 0 | 0.0 | 0.0 | 0.00 | 0.00 | 0.00 | 48 | 1007.6 |
| 20260509074601 | 55 | 0 | 0.0 | 2.0 | 0.00 | 0.00 | 0.00 | 47 | 1007.6 |
| 20260509073056 | 56 | 0 | 0.0 | 2.0 | 0.00 | 0.00 | 0.00 | 46 | 1007.6 |
| 20260509071555 | 56 | 346 | 0.0 | 1.0 | 0.00 | 0.00 | 0.00 | 46 | 1007.7 |
| 20260509070058 | 56 | 0 | 0.0 | 0.0 | 0.00 | 0.00 | 0.00 | 45 | 1007.8 |
| 20260509064556 | 57 | 0 | 0.0 | 0.0 | 0.00 | 0.00 | 0.00 | 45 | 1007.8 |
| 20260509063106 | 57 | 0 | 0.0 | 0.0 | 0.00 | 0.00 | 0.00 | 44 | 1007.9 |
| 20260509061557 | 58 | 0 | 0.0 | 4.0 | 0.00 | 0.00 | 0.00 | 43 | 1008.0 |
| 20260509060104 | 59 | 0 | 0.0 | 3.0 | 0.00 | 0.00 | 0.00 | 42 | 1007.9 |
| 20260509054606 | 60 | 0 | 0.0 | 7.0 | 0.00 | 0.00 | 0.00 | 41 | 1007.8 |
| 20260509053134 | 61 | 335 | 0.0 | 10.0 | 0.00 | 0.00 | 0.00 | 39 | 1007.8 |
| 20260509051556 | 62 | 337 | 1.0 | 12.0 | 0.00 | 0.00 | 0.00 | 37 | 1007.8 |
| 20260509050056 | 64 | 0 | 1.0 | 8.0 | 0.00 | 0.00 | 0.00 | 36 | 1007.7 |
| 20260509044555 | 65 | 0 | 0.0 | 9.0 | 0.00 | 0.00 | 0.00 | 34 | 1007.6 |
| 20260509043105 | 64 | 0 | 1.0 | 6.0 | 0.00 | 0.00 | 0.00 | 34 | 1007.4 |
| 20260509041603 | 64 | 0 | 0.0 | 7.0 | 0.00 | 0.00 | 0.00 | 33 | 1007.3 |
| 20260509040114 | 65 | 0 | 0.0 | 5.0 | 0.00 | 0.00 | 0.00 | 33 | 1007.3 |
| 20260509034605 | 65 | 0 | 0.0 | 1.0 | 0.00 | 0.00 | 0.00 | 32 | 1007.3 |
| 20260509033056 | 66 | 0 | 0.0 | 5.0 | 0.00 | 0.00 | 0.00 | 31 | 1007.2 |
| 20260509031606 | 67 | 290 | 0.0 | 7.0 | 0.00 | 0.00 | 0.00 | 30 | 1007.0 |
| 20260509030058 | 66 | 0 | 1.0 | 4.0 | 0.00 | 0.00 | 0.00 | 30 | 1006.9 |
| 20260509024555 | 66 | 0 | 0.0 | 5.0 | 0.00 | 0.00 | 0.00 | 30 | 1006.7 |
| 20260509023057 | 67 | 0 | 0.0 | 3.0 | 0.00 | 0.00 | 0.00 | 28 | 1006.4 |
| 20260509021555 | 69 | 295 | 1.0 | 3.0 | 0.00 | 0.00 | 0.00 | 27 | 1006.2 |
| 20260509020056 | 70 | 0 | 0.0 | 2.0 | 0.00 | 0.00 | 0.00 | 26 | 1006.0 |
| 20260509014602 | 71 | 307 | 0.0 | 5.0 | 0.00 | 0.00 | 0.00 | 25 | 1005.8 |
| 20260509013107 | 72 | 302 | 1.0 | 4.0 | 0.00 | 0.00 | 0.00 | 24 | 1005.8 |
| 20260509011555 | 72 | 312 | 1.0 | 8.0 | 0.00 | 0.00 | 0.00 | 23 | 1005.8 |
| 20260509010058 | 73 | 321 | 1.0 | 7.0 | 0.00 | 0.00 | 0.00 | 24 | 1005.8 |
| 20260509004601 | 74 | 323 | 2.0 | 12.0 | 0.00 | 0.00 | 0.00 | 25 | 1005.7 |
| 20260509003056 | 75 | 330 | 2.0 | 10.0 | 0.00 | 0.00 | 0.00 | 25 | 1005.5 |
| 20260509001555 | 75 | 336 | 2.0 | 12.0 | 0.00 | 0.00 | 0.00 | 25 | 1005.4 |
| 20260509000056 | 75 | 334 | 0.0 | 3.0 | 0.00 | 0.00 | 0.00 | 28 | 1005.4 |
| 20260508234555 | 74 | 0 | 0.0 | 3.0 | 0.00 | 0.00 | 0.00 | 29 | 1005.4 |
| 20260508233110 | 74 | 302 | 0.0 | 8.0 | 0.00 | 0.00 | 0.00 | 29 | 1005.5 |
| 20260508231559 | 74 | 0 | 0.0 | 4.0 | 0.00 | 0.00 | 0.00 | 29 | 1005.5 |